sensor_id;sensor_type;location;lat;lon;timestamp;temperature;humidity
23143;DHT22;11740;51.168;4.112;2023-04-03T00:00:35;3.50;1.00
23143;DHT22;11740;51.168;4.112;2023-04-03T00:03:02;3.50;1.00
23143;DHT22;11740;51.168;4.112;2023-04-03T00:05:29;3.50;1.00
23143;DHT22;11740;51.168;4.112;2023-04-03T00:07:56;3.40;1.00
23143;DHT22;11740;51.168;4.112;2023-04-03T00:10:23;3.40;1.00
23143;DHT22;11740;51.168;4.112;2023-04-03T00:12:50;3.40;1.00
23143;DHT22;11740;51.168;4.112;2023-04-03T00:15:16;3.30;1.00
23143;DHT22;11740;51.168;4.112;2023-04-03T00:17:43;3.30;1.00
23143;DHT22;11740;51.168;4.112;2023-04-03T00:20:10;3.20;1.00
23143;DHT22;11740;51.168;4.112;2023-04-03T00:22:37;3.20;1.00
23143;DHT22;11740;51.168;4.112;2023-04-03T00:25:04;3.20;1.00
23143;DHT22;11740;51.168;4.112;2023-04-03T00:27:31;3.10;1.00
23143;DHT22;11740;51.168;4.112;2023-04-03T00:29:58;3.10;1.00
23143;DHT22;11740;51.168;4.112;2023-04-03T00:32:25;3.10;1.00
23143;DHT22;11740;51.168;4.112;2023-04-03T00:34:51;3.00;1.00
23143;DHT22;11740;51.168;4.112;2023-04-03T00:37:18;3.00;1.00
23143;DHT22;11740;51.168;4.112;2023-04-03T00:39:45;3.00;1.00
23143;DHT22;11740;51.168;4.112;2023-04-03T00:42:12;3.00;1.00
23143;DHT22;11740;51.168;4.112;2023-04-03T00:47:07;2.90;1.00
23143;DHT22;11740;51.168;4.112;2023-04-03T00:49:35;2.80;1.00
23143;DHT22;11740;51.168;4.112;2023-04-03T00:52:03;2.80;1.00
23143;DHT22;11740;51.168;4.112;2023-04-03T00:54:33;2.80;1.00
23143;DHT22;11740;51.168;4.112;2023-04-03T00:57:02;2.70;1.00
23143;DHT22;11740;51.168;4.112;2023-04-03T00:59:30;2.70;1.00
23143;DHT22;11740;51.168;4.112;2023-04-03T01:02:00;2.60;1.00
23143;DHT22;11740;51.168;4.112;2023-04-03T01:04:31;2.60;1.00
23143;DHT22;11740;51.168;4.112;2023-04-03T01:07:24;2.60;1.00
23143;DHT22;11740;51.168;4.112;2023-04-03T01:09:51;2.50;1.00
23143;DHT22;11740;51.168;4.112;2023-04-03T01:12:24;2.50;1.00
23143;DHT22;11740;51.168;4.112;2023-04-03T01:14:54;2.50;1.00
23143;DHT22;11740;51.168;4.112;2023-04-03T01:28:18;2.40;1.00
23143;DHT22;11740;51.168;4.112;2023-04-03T01:33:19;2.30;1.00
23143;DHT22;11740;51.168;4.112;2023-04-03T01:35:46;2.30;1.00
23143;DHT22;11740;51.168;4.112;2023-04-03T01:38:13;2.20;1.00
23143;DHT22;11740;51.168;4.112;2023-04-03T01:40:39;2.20;1.00
23143;DHT22;11740;51.168;4.112;2023-04-03T01:43:06;2.20;1.00
23143;DHT22;11740;51.168;4.112;2023-04-03T01:45:33;2.10;1.00
23143;DHT22;11740;51.168;4.112;2023-04-03T01:48:00;2.10;1.00
23143;DHT22;11740;51.168;4.112;2023-04-03T01:50:27;2.10;1.00
23143;DHT22;11740;51.168;4.112;2023-04-03T01:52:53;2.00;1.00
23143;DHT22;11740;51.168;4.112;2023-04-03T01:55:20;2.00;1.00
23143;DHT22;11740;51.168;4.112;2023-04-03T01:57:47;2.00;1.00
23143;DHT22;11740;51.168;4.112;2023-04-03T02:00:14;2.00;1.00
23143;DHT22;11740;51.168;4.112;2023-04-03T02:02:41;2.00;1.00
23143;DHT22;11740;51.168;4.112;2023-04-03T02:05:08;1.90;1.00
23143;DHT22;11740;51.168;4.112;2023-04-03T02:07:35;1.90;1.00
23143;DHT22;11740;51.168;4.112;2023-04-03T02:10:02;1.80;1.00
23143;DHT22;11740;51.168;4.112;2023-04-03T02:12:29;1.80;1.00
23143;DHT22;11740;51.168;4.112;2023-04-03T02:14:56;1.80;1.00
23143;DHT22;11740;51.168;4.112;2023-04-03T02:17:23;1.80;1.00
23143;DHT22;11740;51.168;4.112;2023-04-03T02:19:50;1.70;1.00
23143;DHT22;11740;51.168;4.112;2023-04-03T02:22:17;1.70;1.00
23143;DHT22;11740;51.168;4.112;2023-04-03T02:24:44;1.70;1.00
23143;DHT22;11740;51.168;4.112;2023-04-03T02:27:11;1.70;1.00
23143;DHT22;11740;51.168;4.112;2023-04-03T02:29:39;1.60;1.00
23143;DHT22;11740;51.168;4.112;2023-04-03T02:32:05;1.60;1.00
23143;DHT22;11740;51.168;4.112;2023-04-03T02:34:32;1.60;1.00
23143;DHT22;11740;51.168;4.112;2023-04-03T02:36:59;1.50;1.00
23143;DHT22;11740;51.168;4.112;2023-04-03T02:39:26;1.50;1.00
23143;DHT22;11740;51.168;4.112;2023-04-03T02:41:53;1.50;1.00
23143;DHT22;11740;51.168;4.112;2023-04-03T02:44:20;1.40;1.00
23143;DHT22;11740;51.168;4.112;2023-04-03T02:46:46;1.50;1.00
23143;DHT22;11740;51.168;4.112;2023-04-03T02:49:13;1.40;1.00
23143;DHT22;11740;51.168;4.112;2023-04-03T02:51:40;1.40;1.00
23143;DHT22;11740;51.168;4.112;2023-04-03T02:54:07;1.30;1.00
23143;DHT22;11740;51.168;4.112;2023-04-03T02:56:34;1.30;1.00
23143;DHT22;11740;51.168;4.112;2023-04-03T02:59:01;1.30;1.00
23143;DHT22;11740;51.168;4.112;2023-04-03T03:01:28;1.20;1.00
23143;DHT22;11740;51.168;4.112;2023-04-03T03:04:00;1.20;1.00
23143;DHT22;11740;51.168;4.112;2023-04-03T03:06:27;1.20;1.00
23143;DHT22;11740;51.168;4.112;2023-04-03T03:08:54;1.20;1.00
23143;DHT22;11740;51.168;4.112;2023-04-03T03:11:21;1.20;1.00
23143;DHT22;11740;51.168;4.112;2023-04-03T03:13:48;1.10;1.00
23143;DHT22;11740;51.168;4.112;2023-04-03T03:16:15;1.10;1.00
23143;DHT22;11740;51.168;4.112;2023-04-03T03:18:42;1.10;1.00
23143;DHT22;11740;51.168;4.112;2023-04-03T03:21:09;1.00;1.00
23143;DHT22;11740;51.168;4.112;2023-04-03T03:23:36;1.00;1.00
23143;DHT22;11740;51.168;4.112;2023-04-03T03:26:04;1.00;1.00
23143;DHT22;11740;51.168;4.112;2023-04-03T03:28:33;1.00;1.00
23143;DHT22;11740;51.168;4.112;2023-04-03T03:31:00;0.90;1.00
23143;DHT22;11740;51.168;4.112;2023-04-03T03:33:28;0.90;1.00
23143;DHT22;11740;51.168;4.112;2023-04-03T03:35:55;0.90;1.00
23143;DHT22;11740;51.168;4.112;2023-04-03T03:38:22;0.90;1.00
23143;DHT22;11740;51.168;4.112;2023-04-03T03:40:49;0.80;1.00
23143;DHT22;11740;51.168;4.112;2023-04-03T03:43:17;0.80;1.00
23143;DHT22;11740;51.168;4.112;2023-04-03T03:45:44;0.80;1.00
23143;DHT22;11740;51.168;4.112;2023-04-03T03:48:12;0.80;1.00
23143;DHT22;11740;51.168;4.112;2023-04-03T03:50:39;0.70;1.00
23143;DHT22;11740;51.168;4.112;2023-04-03T03:53:06;0.70;1.00
23143;DHT22;11740;51.168;4.112;2023-04-03T03:55:33;0.70;1.00
23143;DHT22;11740;51.168;4.112;2023-04-03T03:58:00;0.60;1.00
23143;DHT22;11740;51.168;4.112;2023-04-03T04:00:27;0.60;1.00
23143;DHT22;11740;51.168;4.112;2023-04-03T04:02:54;0.60;1.00
23143;DHT22;11740;51.168;4.112;2023-04-03T04:05:24;0.60;1.00
23143;DHT22;11740;51.168;4.112;2023-04-03T04:07:51;0.60;1.00
23143;DHT22;11740;51.168;4.112;2023-04-03T04:10:18;0.60;1.00
23143;DHT22;11740;51.168;4.112;2023-04-03T04:12:45;0.50;1.00
23143;DHT22;11740;51.168;4.112;2023-04-03T04:15:12;0.50;1.00
23143;DHT22;11740;51.168;4.112;2023-04-03T04:17:39;0.50;1.00
23143;DHT22;11740;51.168;4.112;2023-04-03T04:20:06;0.50;1.00
23143;DHT22;11740;51.168;4.112;2023-04-03T04:22:33;0.40;1.00
23143;DHT22;11740;51.168;4.112;2023-04-03T04:25:00;0.40;1.00
23143;DHT22;11740;51.168;4.112;2023-04-03T04:27:26;0.30;53.40
23143;DHT22;11740;51.168;4.112;2023-04-03T04:29:53;0.30;8.30
23143;DHT22;11740;51.168;4.112;2023-04-03T04:32:20;0.30;49.00
23143;DHT22;11740;51.168;4.112;2023-04-03T04:34:47;0.30;9.10
23143;DHT22;11740;51.168;4.112;2023-04-03T04:37:14;0.30;99.90
23143;DHT22;11740;51.168;4.112;2023-04-03T04:39:40;0.30;24.10
23143;DHT22;11740;51.168;4.112;2023-04-03T04:42:07;0.30;1.00
23143;DHT22;11740;51.168;4.112;2023-04-03T04:44:42;0.20;16.90
23143;DHT22;11740;51.168;4.112;2023-04-03T04:47:08;0.20;99.90
23143;DHT22;11740;51.168;4.112;2023-04-03T04:49:35;0.20;99.90
23143;DHT22;11740;51.168;4.112;2023-04-03T04:52:02;0.20;99.90
23143;DHT22;11740;51.168;4.112;2023-04-03T04:54:29;0.20;99.90
23143;DHT22;11740;51.168;4.112;2023-04-03T04:56:56;0.20;99.90
23143;DHT22;11740;51.168;4.112;2023-04-03T04:59:23;0.10;99.90
23143;DHT22;11740;51.168;4.112;2023-04-03T05:01:50;0.10;99.90
23143;DHT22;11740;51.168;4.112;2023-04-03T05:04:17;0.10;99.90
23143;DHT22;11740;51.168;4.112;2023-04-03T05:06:44;0.10;99.90
23143;DHT22;11740;51.168;4.112;2023-04-03T05:09:11;0.10;99.90
23143;DHT22;11740;51.168;4.112;2023-04-03T05:11:37;0.00;99.90
23143;DHT22;11740;51.168;4.112;2023-04-03T05:14:04;0.00;99.90
23143;DHT22;11740;51.168;4.112;2023-04-03T05:16:34;0.00;99.90
23143;DHT22;11740;51.168;4.112;2023-04-03T05:19:01;0.00;99.90
23143;DHT22;11740;51.168;4.112;2023-04-03T05:21:28;0.00;99.90
23143;DHT22;11740;51.168;4.112;2023-04-03T05:23:59;0.00;99.90
23143;DHT22;11740;51.168;4.112;2023-04-03T05:26:29;0.00;99.90
23143;DHT22;11740;51.168;4.112;2023-04-03T05:28:57;0.00;99.90
23143;DHT22;11740;51.168;4.112;2023-04-03T05:31:24;-0.10;99.90
23143;DHT22;11740;51.168;4.112;2023-04-03T05:33:51;-0.10;1.00
23143;DHT22;11740;51.168;4.112;2023-04-03T05:36:18;-0.10;1.00
23143;DHT22;11740;51.168;4.112;2023-04-03T05:38:45;-0.20;99.90
23143;DHT22;11740;51.168;4.112;2023-04-03T05:41:12;-0.10;99.90
23143;DHT22;11740;51.168;4.112;2023-04-03T05:43:40;-0.20;99.90
23143;DHT22;11740;51.168;4.112;2023-04-03T05:46:11;-0.20;1.00
23143;DHT22;11740;51.168;4.112;2023-04-03T05:48:38;-0.20;1.00
23143;DHT22;11740;51.168;4.112;2023-04-03T05:51:06;-0.20;1.00
23143;DHT22;11740;51.168;4.112;2023-04-03T05:53:35;-0.20;99.90
23143;DHT22;11740;51.168;4.112;2023-04-03T05:56:05;-0.20;1.00
23143;DHT22;11740;51.168;4.112;2023-04-03T05:58:32;-0.10;1.00
23143;DHT22;11740;51.168;4.112;2023-04-03T06:00:59;0.00;1.00
23143;DHT22;11740;51.168;4.112;2023-04-03T06:03:26;-0.20;1.00
23143;DHT22;11740;51.168;4.112;2023-04-03T06:05:53;-0.10;1.00
23143;DHT22;11740;51.168;4.112;2023-04-03T06:08:20;0.00;1.00
23143;DHT22;11740;51.168;4.112;2023-04-03T06:10:47;-0.10;1.00
23143;DHT22;11740;51.168;4.112;2023-04-03T06:13:14;-0.10;1.00
23143;DHT22;11740;51.168;4.112;2023-04-03T06:15:41;0.00;61.10
23143;DHT22;11740;51.168;4.112;2023-04-03T06:18:08;0.00;43.60
23143;DHT22;11740;51.168;4.112;2023-04-03T06:20:35;0.00;99.90
23143;DHT22;11740;51.168;4.112;2023-04-03T06:23:02;0.00;99.90
23143;DHT22;11740;51.168;4.112;2023-04-03T06:25:29;0.10;99.90
23143;DHT22;11740;51.168;4.112;2023-04-03T06:27:56;0.20;1.00
23143;DHT22;11740;51.168;4.112;2023-04-03T06:30:23;0.20;1.00
23143;DHT22;11740;51.168;4.112;2023-04-03T06:32:50;0.20;1.00
23143;DHT22;11740;51.168;4.112;2023-04-03T06:35:16;0.30;99.90
23143;DHT22;11740;51.168;4.112;2023-04-03T06:37:43;0.40;99.90
23143;DHT22;11740;51.168;4.112;2023-04-03T06:40:21;0.40;99.90
23143;DHT22;11740;51.168;4.112;2023-04-03T06:42:50;0.40;99.90
23143;DHT22;11740;51.168;4.112;2023-04-03T06:45:17;0.40;99.90
23143;DHT22;11740;51.168;4.112;2023-04-03T06:47:44;0.50;99.90
23143;DHT22;11740;51.168;4.112;2023-04-03T06:50:11;0.60;99.90
23143;DHT22;11740;51.168;4.112;2023-04-03T06:52:40;0.60;99.90
23143;DHT22;11740;51.168;4.112;2023-04-03T06:55:08;0.60;28.30
23143;DHT22;11740;51.168;4.112;2023-04-03T06:57:35;0.70;2.40
23143;DHT22;11740;51.168;4.112;2023-04-03T07:00:03;0.80;1.00
23143;DHT22;11740;51.168;4.112;2023-04-03T07:02:31;0.90;28.40
23143;DHT22;11740;51.168;4.112;2023-04-03T07:04:58;0.90;28.30
23143;DHT22;11740;51.168;4.112;2023-04-03T07:07:25;1.00;1.00
23143;DHT22;11740;51.168;4.112;2023-04-03T07:09:53;1.10;1.00
23143;DHT22;11740;51.168;4.112;2023-04-03T07:12:20;1.10;15.30
23143;DHT22;11740;51.168;4.112;2023-04-03T07:14:47;1.30;99.90
23143;DHT22;11740;51.168;4.112;2023-04-03T07:17:14;1.30;1.00
23143;DHT22;11740;51.168;4.112;2023-04-03T07:19:41;1.40;1.00
23143;DHT22;11740;51.168;4.112;2023-04-03T07:22:07;1.40;1.00
23143;DHT22;11740;51.168;4.112;2023-04-03T07:24:34;1.50;1.00
23143;DHT22;11740;51.168;4.112;2023-04-03T07:27:02;1.60;1.00
23143;DHT22;11740;51.168;4.112;2023-04-03T07:29:29;1.60;1.00
23143;DHT22;11740;51.168;4.112;2023-04-03T07:31:56;1.60;99.90
23143;DHT22;11740;51.168;4.112;2023-04-03T07:34:23;1.60;99.90
23143;DHT22;11740;51.168;4.112;2023-04-03T07:36:50;1.70;99.90
23143;DHT22;11740;51.168;4.112;2023-04-03T07:39:17;1.70;99.90
23143;DHT22;11740;51.168;4.112;2023-04-03T07:41:44;1.80;99.90
23143;DHT22;11740;51.168;4.112;2023-04-03T07:44:12;1.90;99.90
23143;DHT22;11740;51.168;4.112;2023-04-03T07:46:39;1.90;99.90
23143;DHT22;11740;51.168;4.112;2023-04-03T07:49:07;2.00;99.90
23143;DHT22;11740;51.168;4.112;2023-04-03T07:51:33;2.20;99.90
23143;DHT22;11740;51.168;4.112;2023-04-03T07:54:01;2.20;99.90
23143;DHT22;11740;51.168;4.112;2023-04-03T07:56:27;2.30;92.90
23143;DHT22;11740;51.168;4.112;2023-04-03T07:58:54;2.30;9.20
23143;DHT22;11740;51.168;4.112;2023-04-03T08:01:21;2.30;1.00
23143;DHT22;11740;51.168;4.112;2023-04-03T08:03:48;2.40;1.00
23143;DHT22;11740;51.168;4.112;2023-04-03T08:06:15;2.50;1.00
23143;DHT22;11740;51.168;4.112;2023-04-03T08:08:49;2.50;1.00
23143;DHT22;11740;51.168;4.112;2023-04-03T08:11:16;2.70;1.00
23143;DHT22;11740;51.168;4.112;2023-04-03T08:13:42;2.70;1.00
23143;DHT22;11740;51.168;4.112;2023-04-03T08:16:10;2.70;1.00
23143;DHT22;11740;51.168;4.112;2023-04-03T08:18:39;2.80;1.00
23143;DHT22;11740;51.168;4.112;2023-04-03T08:21:07;2.90;1.00
23143;DHT22;11740;51.168;4.112;2023-04-03T08:23:35;3.00;1.00
23143;DHT22;11740;51.168;4.112;2023-04-03T08:26:06;3.20;1.00
23143;DHT22;11740;51.168;4.112;2023-04-03T08:28:36;3.40;1.00
23143;DHT22;11740;51.168;4.112;2023-04-03T08:31:04;3.60;99.90
23143;DHT22;11740;51.168;4.112;2023-04-03T08:33:33;3.80;99.90
23143;DHT22;11740;51.168;4.112;2023-04-03T08:36:01;4.00;99.90
23143;DHT22;11740;51.168;4.112;2023-04-03T08:38:29;4.20;99.90
23143;DHT22;11740;51.168;4.112;2023-04-03T08:41:39;4.40;99.90
23143;DHT22;11740;51.168;4.112;2023-04-03T08:51:54;4.80;1.00
23143;DHT22;11740;51.168;4.112;2023-04-03T08:54:28;4.90;1.00
23143;DHT22;11740;51.168;4.112;2023-04-03T08:56:59;4.90;1.00
23143;DHT22;11740;51.168;4.112;2023-04-03T08:59:30;5.00;1.00
23143;DHT22;11740;51.168;4.112;2023-04-03T09:02:00;5.00;1.00
23143;DHT22;11740;51.168;4.112;2023-04-03T09:04:31;5.00;1.00
23143;DHT22;11740;51.168;4.112;2023-04-03T09:07:07;5.10;1.00
23143;DHT22;11740;51.168;4.112;2023-04-03T09:09:46;5.10;1.00
23143;DHT22;11740;51.168;4.112;2023-04-03T09:12:27;5.20;1.00
23143;DHT22;11740;51.168;4.112;2023-04-03T09:25:56;5.50;1.00
23143;DHT22;11740;51.168;4.112;2023-04-03T09:28:27;5.60;1.00
23143;DHT22;11740;51.168;4.112;2023-04-03T09:31:27;5.70;1.00
23143;DHT22;11740;51.168;4.112;2023-04-03T09:33:58;5.80;1.00
23143;DHT22;11740;51.168;4.112;2023-04-03T09:39:09;5.80;1.00
23143;DHT22;11740;51.168;4.112;2023-04-03T09:42:11;5.90;1.00
23143;DHT22;11740;51.168;4.112;2023-04-03T09:44:44;6.00;1.00
23143;DHT22;11740;51.168;4.112;2023-04-03T09:47:27;6.00;99.90
23143;DHT22;11740;51.168;4.112;2023-04-03T09:50:09;6.00;1.00
23143;DHT22;11740;51.168;4.112;2023-04-03T09:52:41;6.10;1.00
23143;DHT22;11740;51.168;4.112;2023-04-03T09:55:16;6.10;1.00
23143;DHT22;11740;51.168;4.112;2023-04-03T09:57:45;6.30;1.00
23143;DHT22;11740;51.168;4.112;2023-04-03T10:00:23;6.30;1.00
23143;DHT22;11740;51.168;4.112;2023-04-03T10:03:05;6.40;1.00
23143;DHT22;11740;51.168;4.112;2023-04-03T10:05:38;6.40;99.90
23143;DHT22;11740;51.168;4.112;2023-04-03T10:08:10;6.50;99.90
23143;DHT22;11740;51.168;4.112;2023-04-03T10:10:37;6.60;99.90
23143;DHT22;11740;51.168;4.112;2023-04-03T10:13:15;6.60;99.90
23143;DHT22;11740;51.168;4.112;2023-04-03T10:15:51;6.80;99.90
23143;DHT22;11740;51.168;4.112;2023-04-03T10:20:57;6.80;99.90
23143;DHT22;11740;51.168;4.112;2023-04-03T10:23:36;6.90;99.90
23143;DHT22;11740;51.168;4.112;2023-04-03T10:26:12;7.00;99.90
23143;DHT22;11740;51.168;4.112;2023-04-03T10:28:57;7.00;99.90
23143;DHT22;11740;51.168;4.112;2023-04-03T10:34:02;7.20;99.90
23143;DHT22;11740;51.168;4.112;2023-04-03T10:42:00;7.40;99.90
23143;DHT22;11740;51.168;4.112;2023-04-03T10:45:03;7.40;99.90
23143;DHT22;11740;51.168;4.112;2023-04-03T10:48:28;7.50;99.90
23143;DHT22;11740;51.168;4.112;2023-04-03T10:50:39;7.50;99.90
23143;DHT22;11740;51.168;4.112;2023-04-03T10:53:30;7.60;99.90
23143;DHT22;11740;51.168;4.112;2023-04-03T10:58:45;7.70;99.90
23143;DHT22;11740;51.168;4.112;2023-04-03T11:01:19;7.80;99.90
23143;DHT22;11740;51.168;4.112;2023-04-03T11:03:49;7.80;99.90
23143;DHT22;11740;51.168;4.112;2023-04-03T11:06:19;7.90;99.90
23143;DHT22;11740;51.168;4.112;2023-04-03T11:09:03;7.90;99.90
23143;DHT22;11740;51.168;4.112;2023-04-03T11:11:38;8.00;99.90
23143;DHT22;11740;51.168;4.112;2023-04-03T11:20:17;8.40;99.90
23143;DHT22;11740;51.168;4.112;2023-04-03T11:22:51;8.40;99.90
23143;DHT22;11740;51.168;4.112;2023-04-03T11:25:49;8.40;99.90
23143;DHT22;11740;51.168;4.112;2023-04-03T11:28:16;8.50;99.90
23143;DHT22;11740;51.168;4.112;2023-04-03T11:33:24;8.60;99.90
23143;DHT22;11740;51.168;4.112;2023-04-03T11:35:55;8.70;99.90
23143;DHT22;11740;51.168;4.112;2023-04-03T11:38:33;8.80;99.90
23143;DHT22;11740;51.168;4.112;2023-04-03T11:41:03;8.80;99.90
23143;DHT22;11740;51.168;4.112;2023-04-03T11:43:31;8.90;99.90
23143;DHT22;11740;51.168;4.112;2023-04-03T11:46:00;8.90;99.90
23143;DHT22;11740;51.168;4.112;2023-04-03T11:51:00;8.90;99.90
23143;DHT22;11740;51.168;4.112;2023-04-03T11:53:32;9.10;99.90
23143;DHT22;11740;51.168;4.112;2023-04-03T12:04:15;9.50;76.10
23143;DHT22;11740;51.168;4.112;2023-04-03T12:09:23;9.60;56.50
23143;DHT22;11740;51.168;4.112;2023-04-03T12:11:51;9.70;74.50
23143;DHT22;11740;51.168;4.112;2023-04-03T12:14:18;9.80;70.80
23143;DHT22;11740;51.168;4.112;2023-04-03T12:16:49;9.80;59.70
23143;DHT22;11740;51.168;4.112;2023-04-03T12:24:27;10.20;64.30
23143;DHT22;11740;51.168;4.112;2023-04-03T12:29:28;10.40;26.60
23143;DHT22;11740;51.168;4.112;2023-04-03T12:45:46;11.00;14.30
23143;DHT22;11740;51.168;4.112;2023-04-03T12:48:17;11.10;16.90
23143;DHT22;11740;51.168;4.112;2023-04-03T12:50:46;11.20;1.00
23143;DHT22;11740;51.168;4.112;2023-04-03T12:53:18;11.30;1.00
23143;DHT22;11740;51.168;4.112;2023-04-03T12:55:47;11.30;1.00
23143;DHT22;11740;51.168;4.112;2023-04-03T12:58:23;11.40;1.00
23143;DHT22;11740;51.168;4.112;2023-04-03T13:03:36;11.50;1.00
23143;DHT22;11740;51.168;4.112;2023-04-03T13:06:05;11.70;1.00
23143;DHT22;11740;51.168;4.112;2023-04-03T13:08:33;11.90;1.00
23143;DHT22;11740;51.168;4.112;2023-04-03T13:11:08;11.90;1.00
23143;DHT22;11740;51.168;4.112;2023-04-03T13:13:37;11.90;1.00
23143;DHT22;11740;51.168;4.112;2023-04-03T13:16:09;12.00;1.00
23143;DHT22;11740;51.168;4.112;2023-04-03T13:18:37;12.30;1.00
23143;DHT22;11740;51.168;4.112;2023-04-03T13:21:05;12.50;1.00
23143;DHT22;11740;51.168;4.112;2023-04-03T13:23:35;12.70;1.00
23143;DHT22;11740;51.168;4.112;2023-04-03T13:26:03;12.70;1.00
23143;DHT22;11740;51.168;4.112;2023-04-03T13:28:31;12.80;1.00
23143;DHT22;11740;51.168;4.112;2023-04-03T13:31:16;12.90;1.00
23143;DHT22;11740;51.168;4.112;2023-04-03T13:33:57;12.80;1.00
23143;DHT22;11740;51.168;4.112;2023-04-03T13:36:36;13.00;1.00
23143;DHT22;11740;51.168;4.112;2023-04-03T13:39:06;13.00;1.00
23143;DHT22;11740;51.168;4.112;2023-04-03T13:41:35;13.20;1.00
23143;DHT22;11740;51.168;4.112;2023-04-03T13:46:56;13.60;1.00
23143;DHT22;11740;51.168;4.112;2023-04-03T13:49:45;13.70;1.00
23143;DHT22;11740;51.168;4.112;2023-04-03T13:52:27;13.60;1.00
23143;DHT22;11740;51.168;4.112;2023-04-03T13:55:01;13.80;1.00
23143;DHT22;11740;51.168;4.112;2023-04-03T13:57:35;14.00;1.00
23143;DHT22;11740;51.168;4.112;2023-04-03T14:02:54;14.00;1.00
23143;DHT22;11740;51.168;4.112;2023-04-03T14:05:23;14.10;1.00
23143;DHT22;11740;51.168;4.112;2023-04-03T14:07:54;14.30;1.00
23143;DHT22;11740;51.168;4.112;2023-04-03T14:10:22;14.40;1.00
23143;DHT22;11740;51.168;4.112;2023-04-03T14:12:48;14.60;1.00
23143;DHT22;11740;51.168;4.112;2023-04-03T14:15:23;14.70;1.00
23143;DHT22;11740;51.168;4.112;2023-04-03T14:17:51;14.80;1.00
23143;DHT22;11740;51.168;4.112;2023-04-03T14:20:20;14.80;1.00
23143;DHT22;11740;51.168;4.112;2023-04-03T14:22:48;14.90;1.00
23143;DHT22;11740;51.168;4.112;2023-04-03T14:25:16;15.20;1.00
23143;DHT22;11740;51.168;4.112;2023-04-03T14:27:45;15.30;1.00
23143;DHT22;11740;51.168;4.112;2023-04-03T14:30:14;15.40;1.00
23143;DHT22;11740;51.168;4.112;2023-04-03T14:32:42;15.50;1.00
23143;DHT22;11740;51.168;4.112;2023-04-03T14:35:09;15.50;1.00
23143;DHT22;11740;51.168;4.112;2023-04-03T14:37:36;15.50;1.00
23143;DHT22;11740;51.168;4.112;2023-04-03T14:40:03;15.70;1.00
23143;DHT22;11740;51.168;4.112;2023-04-03T14:42:36;15.90;1.00
23143;DHT22;11740;51.168;4.112;2023-04-03T14:45:05;15.80;1.00
23143;DHT22;11740;51.168;4.112;2023-04-03T14:47:35;15.80;1.00
23143;DHT22;11740;51.168;4.112;2023-04-03T14:50:04;16.10;1.00
23143;DHT22;11740;51.168;4.112;2023-04-03T14:52:35;16.20;1.00
23143;DHT22;11740;51.168;4.112;2023-04-03T14:55:04;16.40;1.00
23143;DHT22;11740;51.168;4.112;2023-04-03T14:57:32;16.40;1.00
23143;DHT22;11740;51.168;4.112;2023-04-03T15:00:00;16.60;1.00
23143;DHT22;11740;51.168;4.112;2023-04-03T15:04:57;16.60;1.00
23143;DHT22;11740;51.168;4.112;2023-04-03T15:07:26;16.80;1.00
23143;DHT22;11740;51.168;4.112;2023-04-03T15:09:54;17.00;1.00
23143;DHT22;11740;51.168;4.112;2023-04-03T15:12:24;17.00;1.00
23143;DHT22;11740;51.168;4.112;2023-04-03T15:14:52;17.40;1.00
23143;DHT22;11740;51.168;4.112;2023-04-03T15:17:28;17.30;1.00
23143;DHT22;11740;51.168;4.112;2023-04-03T15:19:55;17.30;1.00
23143;DHT22;11740;51.168;4.112;2023-04-03T15:22:22;17.40;1.00
23143;DHT22;11740;51.168;4.112;2023-04-03T15:24:49;17.00;1.00
23143;DHT22;11740;51.168;4.112;2023-04-03T15:27:16;17.00;1.00
23143;DHT22;11740;51.168;4.112;2023-04-03T15:29:43;17.50;1.00
23143;DHT22;11740;51.168;4.112;2023-04-03T15:32:10;17.50;1.00
23143;DHT22;11740;51.168;4.112;2023-04-03T15:34:38;17.50;1.00
23143;DHT22;11740;51.168;4.112;2023-04-03T15:37:05;17.60;1.00
23143;DHT22;11740;51.168;4.112;2023-04-03T15:39:32;17.50;1.00
23143;DHT22;11740;51.168;4.112;2023-04-03T15:41:59;17.50;1.00
23143;DHT22;11740;51.168;4.112;2023-04-03T15:44:35;17.50;1.00
23143;DHT22;11740;51.168;4.112;2023-04-03T15:47:02;17.50;1.00
23143;DHT22;11740;51.168;4.112;2023-04-03T15:49:29;17.50;1.00
23143;DHT22;11740;51.168;4.112;2023-04-03T15:51:56;17.50;1.00
23143;DHT22;11740;51.168;4.112;2023-04-03T15:54:23;17.60;1.00
23143;DHT22;11740;51.168;4.112;2023-04-03T15:56:51;17.70;1.00
23143;DHT22;11740;51.168;4.112;2023-04-03T15:59:18;17.70;1.00
23143;DHT22;11740;51.168;4.112;2023-04-03T16:01:46;18.10;1.00
23143;DHT22;11740;51.168;4.112;2023-04-03T16:04:13;18.30;1.00
23143;DHT22;11740;51.168;4.112;2023-04-03T16:06:41;18.10;1.00
23143;DHT22;11740;51.168;4.112;2023-04-03T16:09:08;18.10;1.00
23143;DHT22;11740;51.168;4.112;2023-04-03T16:11:36;18.40;1.00
23143;DHT22;11740;51.168;4.112;2023-04-03T16:14:08;18.30;1.00
23143;DHT22;11740;51.168;4.112;2023-04-03T16:16:35;18.30;1.00
23143;DHT22;11740;51.168;4.112;2023-04-03T16:19:03;18.20;1.00
23143;DHT22;11740;51.168;4.112;2023-04-03T16:21:30;18.20;1.00
23143;DHT22;11740;51.168;4.112;2023-04-03T16:23:58;18.40;1.00
23143;DHT22;11740;51.168;4.112;2023-04-03T16:26:25;18.30;1.00
23143;DHT22;11740;51.168;4.112;2023-04-03T16:28:52;17.90;1.00
23143;DHT22;11740;51.168;4.112;2023-04-03T16:31:19;17.50;1.00
23143;DHT22;11740;51.168;4.112;2023-04-03T16:33:47;17.20;1.00
23143;DHT22;11740;51.168;4.112;2023-04-03T16:36:14;17.10;1.00
23143;DHT22;11740;51.168;4.112;2023-04-03T16:38:41;16.80;1.00
23143;DHT22;11740;51.168;4.112;2023-04-03T16:41:07;16.70;1.00
23143;DHT22;11740;51.168;4.112;2023-04-03T16:43:34;16.50;1.00
23143;DHT22;11740;51.168;4.112;2023-04-03T16:46:02;16.50;1.00
23143;DHT22;11740;51.168;4.112;2023-04-03T16:48:29;16.40;1.00
23143;DHT22;11740;51.168;4.112;2023-04-03T16:50:56;16.00;1.00
23143;DHT22;11740;51.168;4.112;2023-04-03T16:53:24;16.00;1.00
23143;DHT22;11740;51.168;4.112;2023-04-03T16:55:51;15.70;1.00
23143;DHT22;11740;51.168;4.112;2023-04-03T16:58:18;15.60;1.00
23143;DHT22;11740;51.168;4.112;2023-04-03T17:00:47;15.50;1.00
23143;DHT22;11740;51.168;4.112;2023-04-03T17:03:14;15.30;1.00
23143;DHT22;11740;51.168;4.112;2023-04-03T17:05:41;15.20;1.00
23143;DHT22;11740;51.168;4.112;2023-04-03T17:08:10;15.20;1.00
23143;DHT22;11740;51.168;4.112;2023-04-03T17:10:37;15.20;1.00
23143;DHT22;11740;51.168;4.112;2023-04-03T17:13:03;15.00;1.00
23143;DHT22;11740;51.168;4.112;2023-04-03T17:15:30;15.00;1.00
23143;DHT22;11740;51.168;4.112;2023-04-03T17:17:57;14.80;1.00
23143;DHT22;11740;51.168;4.112;2023-04-03T17:20:24;14.80;1.00
23143;DHT22;11740;51.168;4.112;2023-04-03T17:22:51;14.60;1.00
23143;DHT22;11740;51.168;4.112;2023-04-03T17:25:18;14.60;1.00
23143;DHT22;11740;51.168;4.112;2023-04-03T17:27:45;14.40;1.00
23143;DHT22;11740;51.168;4.112;2023-04-03T17:30:11;14.10;1.00
23143;DHT22;11740;51.168;4.112;2023-04-03T17:32:38;14.20;1.00
23143;DHT22;11740;51.168;4.112;2023-04-03T17:35:06;14.10;1.00
23143;DHT22;11740;51.168;4.112;2023-04-03T17:37:37;14.00;1.00
23143;DHT22;11740;51.168;4.112;2023-04-03T17:40:04;13.90;1.00
23143;DHT22;11740;51.168;4.112;2023-04-03T17:42:31;13.70;1.00
23143;DHT22;11740;51.168;4.112;2023-04-03T17:44:58;13.70;1.00
23143;DHT22;11740;51.168;4.112;2023-04-03T17:47:26;13.60;1.00
23143;DHT22;11740;51.168;4.112;2023-04-03T17:49:53;13.50;1.00